createdAt,value
2022-11-28T00:01:33.487Z,21.63
2022-11-28T00:04:01.353Z,20.33
2022-11-28T00:06:29.375Z,19.52
2022-11-28T00:08:59.624Z,16.88
2022-11-28T00:11:27.494Z,21.85
2022-11-28T00:13:55.376Z,17.02
2022-11-28T00:16:23.769Z,19.98
2022-11-28T00:18:54.931Z,17.88
2022-11-28T00:21:22.810Z,18.58
2022-11-28T00:23:50.160Z,15.57
2022-11-28T00:26:21.970Z,17.13
2022-11-28T00:28:49.528Z,17.05
2022-11-28T00:31:20.503Z,15.32
2022-11-28T00:33:47.825Z,14.70
2022-11-28T00:36:15.134Z,15.68
2022-11-28T00:38:42.648Z,14.40
2022-11-28T00:41:19.266Z,13.35
2022-11-28T00:43:47.678Z,14.57
2022-11-28T00:46:16.500Z,14.45
2022-11-28T00:48:44.696Z,17.50
2022-11-28T00:51:23.009Z,13.13
2022-11-28T00:53:52.620Z,16.30
2022-11-28T00:56:22.609Z,15.75
2022-11-28T00:58:50.116Z,16.05
2022-11-28T01:01:18.891Z,14.68
2022-11-28T01:03:48.542Z,15.05
2022-11-28T01:06:24.671Z,14.73
2022-11-28T01:08:52.478Z,16.27
2022-11-28T01:11:20.736Z,17.52
2022-11-28T01:13:48.381Z,15.23
2022-11-28T01:16:15.784Z,18.23
2022-11-28T01:18:43.128Z,12.85
2022-11-28T01:21:10.393Z,15.88
2022-11-28T01:23:38.202Z,13.63
2022-11-28T01:26:08.479Z,13.00
2022-11-28T01:28:36.193Z,13.70
2022-11-28T01:31:08.484Z,14.68
2022-11-28T01:33:36.163Z,22.75
2022-11-28T01:36:04.538Z,14.77
2022-11-28T01:38:32.262Z,12.07
2022-11-28T01:40:59.847Z,13.25
2022-11-28T01:43:27.282Z,11.80
2022-11-28T01:45:55.014Z,11.95
2022-11-28T01:48:29.471Z,11.43
2022-11-28T01:51:01.192Z,9.80
2022-11-28T01:53:35.244Z,8.57
2022-11-28T01:56:31.706Z,10.23
2022-11-28T01:59:04.436Z,11.05
2022-11-28T02:01:31.816Z,11.02
2022-11-28T02:03:59.763Z,10.60
2022-11-28T02:06:28.144Z,10.23
2022-11-28T02:08:55.996Z,9.88
2022-11-28T02:11:41.823Z,9.80
2022-11-28T02:14:22.965Z,9.48
2022-11-28T02:17:05.785Z,9.95
2022-11-28T02:19:54.502Z,9.00
2022-11-28T02:22:40.164Z,13.50
2022-11-28T02:25:37.072Z,9.02
2022-11-28T02:28:23.996Z,11.05
2022-11-28T02:31:00.149Z,9.27
2022-11-28T02:33:46.210Z,11.52
2022-11-28T02:36:25.618Z,11.57
2022-11-28T02:39:04.970Z,11.77
2022-11-28T02:41:58.418Z,11.88
2022-11-28T02:44:44.015Z,11.75
2022-11-28T02:47:34.313Z,13.55
2022-11-28T02:50:17.472Z,12.45
2022-11-28T02:52:54.043Z,11.57
2022-11-28T02:55:21.690Z,11.13
2022-11-28T02:57:54.137Z,12.25
2022-11-28T03:00:26.213Z,13.70
2022-11-28T03:03:04.765Z,11.98
2022-11-28T03:05:59.416Z,14.35
2022-11-28T03:08:37.807Z,15.35
2022-11-28T03:11:23.741Z,13.65
2022-11-28T03:14:14.007Z,14.80
2022-11-28T03:16:55.889Z,13.32
2022-11-28T03:19:29.771Z,12.70
2022-11-28T03:22:12.094Z,18.70
2022-11-28T03:24:50.379Z,12.80
2022-11-28T03:27:30.245Z,12.30
2022-11-28T03:30:06.644Z,13.75
2022-11-28T03:32:38.601Z,17.65
2022-11-28T03:35:18.796Z,19.17
2022-11-28T03:37:56.452Z,20.67
2022-11-28T03:40:32.593Z,27.85
2022-11-28T03:43:05.521Z,33.80
2022-11-28T03:45:52.408Z,52.17
2022-11-28T03:48:27.842Z,49.30
2022-11-28T03:51:05.894Z,45.10
2022-11-28T03:53:47.010Z,37.42
2022-11-28T03:56:49.166Z,31.83
2022-11-28T03:59:36.054Z,24.85
2022-11-28T04:02:06.460Z,19.83
2022-11-28T04:04:52.138Z,17.83
2022-11-28T04:07:26.495Z,17.45
2022-11-28T04:10:00.162Z,18.33
2022-11-28T04:12:41.171Z,15.68
2022-11-28T04:15:26.888Z,15.85
2022-11-28T04:18:06.843Z,13.80
2022-11-28T04:20:42.625Z,16.02
2022-11-28T04:23:14.859Z,13.25
2022-11-28T04:25:55.911Z,12.73
2022-11-28T04:28:27.901Z,14.75
2022-11-28T04:30:58.536Z,13.13
2022-11-28T04:33:29.351Z,13.52
2022-11-28T04:35:57.991Z,12.13
2022-11-28T04:38:28.479Z,12.95
2022-11-28T04:41:14.500Z,14.60
2022-11-28T04:43:48.792Z,12.55
2022-11-28T04:46:25.353Z,11.00
2022-11-28T04:48:52.861Z,13.50
2022-11-28T04:51:29.506Z,13.93
2022-11-28T04:54:07.604Z,14.32
2022-11-28T04:56:58.314Z,12.57
2022-11-28T04:59:27.232Z,12.07
2022-11-28T05:01:56.213Z,13.23
2022-11-28T05:04:23.565Z,13.80
2022-11-28T05:06:50.777Z,13.63
2022-11-28T05:09:17.868Z,11.73
2022-11-28T05:11:44.974Z,13.55
2022-11-28T05:14:12.117Z,9.82
2022-11-28T05:16:39.395Z,10.70
2022-11-28T05:19:06.673Z,11.13
2022-11-28T05:21:33.892Z,11.70
2022-11-28T05:24:01.078Z,13.38
2022-11-28T05:26:32.251Z,13.73
2022-11-28T05:28:59.477Z,11.15
2022-11-28T05:31:26.669Z,12.50
2022-11-28T05:33:55.017Z,13.02
2022-11-28T05:36:22.407Z,13.77
2022-11-28T05:38:50.244Z,21.63
2022-11-28T05:41:36.075Z,21.20
2022-11-28T05:44:03.410Z,29.15
2022-11-28T05:46:30.750Z,32.65
2022-11-28T05:48:58.159Z,29.88
2022-11-28T05:51:25.508Z,26.67
2022-11-28T05:53:52.849Z,28.33
2022-11-28T05:56:23.314Z,27.60
2022-11-28T05:58:50.886Z,28.55
2022-11-28T06:01:29.938Z,27.90
2022-11-28T06:04:01.246Z,28.80
2022-11-28T06:06:31.396Z,30.90
2022-11-28T06:08:59.175Z,25.60
2022-11-28T06:11:28.969Z,28.55
2022-11-28T06:13:56.333Z,21.23
2022-11-28T06:16:26.368Z,21.75
2022-11-28T06:18:58.548Z,18.65
2022-11-28T06:21:26.452Z,18.73
2022-11-28T06:23:54.156Z,18.70
2022-11-28T06:26:23.692Z,21.10
2022-11-28T06:28:51.291Z,17.95
2022-11-28T06:31:24.547Z,16.08
2022-11-28T06:33:52.096Z,16.60
2022-11-28T06:36:20.333Z,19.40
2022-11-28T06:38:48.072Z,19.70
2022-11-28T06:41:18.986Z,21.58
2022-11-28T06:43:46.378Z,24.77
2022-11-28T06:46:16.786Z,23.30
2022-11-28T06:48:45.246Z,22.10
2022-11-28T06:51:13.720Z,25.83
2022-11-28T06:53:41.121Z,20.23
2022-11-28T06:56:19.336Z,22.13
2022-11-28T06:58:47.340Z,22.42
2022-11-28T07:01:20.731Z,20.95
2022-11-28T07:03:48.925Z,22.05
2022-11-28T07:06:18.071Z,24.52
2022-11-28T07:08:46.562Z,24.48
2022-11-28T07:11:16.508Z,26.38
2022-11-28T07:13:46.090Z,28.05
2022-11-28T07:16:18.641Z,25.63
2022-11-28T07:18:46.284Z,24.33
2022-11-28T07:21:14.887Z,25.55
2022-11-28T07:23:43.616Z,26.30
2022-11-28T07:26:13.323Z,26.80
2022-11-28T07:28:41.158Z,24.88
2022-11-28T07:31:14.549Z,27.20
2022-11-28T07:33:43.090Z,21.42
2022-11-28T07:36:19.845Z,26.35
2022-11-28T07:38:49.123Z,28.77
2022-11-28T07:41:16.921Z,27.73
2022-11-28T07:43:46.140Z,32.25
2022-11-28T07:46:16.689Z,27.30
2022-11-28T07:48:44.781Z,25.08
2022-11-28T07:51:15.321Z,30.77
2022-11-28T07:53:43.351Z,29.40
2022-11-28T07:56:16.542Z,30.10
2022-11-28T07:58:45.692Z,23.40
2022-11-28T08:01:18.191Z,27.98
2022-11-28T08:03:46.505Z,25.02
2022-11-28T08:06:15.269Z,21.55
2022-11-28T08:08:42.816Z,23.33
2022-11-28T08:11:10.499Z,21.05
2022-11-28T08:13:39.540Z,21.95
2022-11-28T08:16:10.249Z,21.73
2022-11-28T08:18:37.533Z,22.92
2022-11-28T08:21:10.542Z,19.45
2022-11-28T08:23:39.140Z,29.30
2022-11-28T08:26:09.460Z,30.13
2022-11-28T08:28:37.309Z,28.83
2022-11-28T08:31:10.853Z,22.98
2022-11-28T08:33:38.475Z,21.90
2022-11-28T08:36:10.602Z,24.58
2022-11-28T08:38:38.775Z,23.42
2022-11-28T08:41:11.246Z,28.63
2022-11-28T08:43:39.131Z,29.98
2022-11-28T08:46:09.417Z,27.33
2022-11-28T08:48:37.906Z,26.08
2022-11-28T08:51:05.793Z,26.50
2022-11-28T08:53:33.296Z,24.08
2022-11-28T08:56:00.811Z,18.45
2022-11-28T08:58:28.037Z,20.45
2022-11-28T09:00:55.284Z,19.80
2022-11-28T09:03:22.578Z,19.63
2022-11-28T09:05:50.165Z,21.58
2022-11-28T09:08:19.895Z,20.35
2022-11-28T09:10:47.805Z,22.75
2022-11-28T09:13:15.777Z,23.25
2022-11-28T09:15:44.660Z,18.40
2022-11-28T09:18:15.488Z,19.30
2022-11-28T09:20:43.137Z,18.85
2022-11-28T09:23:11.236Z,23.02
2022-11-28T09:25:39.748Z,19.88
2022-11-28T09:28:07.632Z,17.13
2022-11-28T09:30:35.329Z,20.85
2022-11-28T09:33:02.586Z,19.80
2022-11-28T09:35:29.801Z,22.08
2022-11-28T09:37:58.525Z,17.00
2022-11-28T09:40:42.220Z,17.63
2022-11-28T09:43:21.731Z,18.65
2022-11-28T09:45:52.977Z,17.65
2022-11-28T09:48:29.360Z,19.27
2022-11-28T09:51:03.986Z,17.20
2022-11-28T09:53:38.349Z,19.48
2022-11-28T09:56:19.138Z,19.20
2022-11-28T09:58:50.026Z,16.80
2022-11-28T10:01:26.367Z,18.15
2022-11-28T10:04:30.883Z,18.42
2022-11-28T10:07:03.979Z,18.15
2022-11-28T10:10:02.344Z,20.20
2022-11-28T10:12:52.757Z,17.70
2022-11-28T10:15:22.343Z,19.55
2022-11-28T10:18:25.095Z,18.08
2022-11-28T10:20:59.454Z,21.75
2022-11-28T10:23:45.759Z,17.52
2022-11-28T10:26:41.344Z,25.88
2022-11-28T10:29:28.748Z,19.48
2022-11-28T10:31:59.640Z,22.80
2022-11-28T10:34:31.602Z,19.75
2022-11-28T10:37:08.484Z,19.42
2022-11-28T10:39:38.034Z,16.17
2022-11-28T10:42:15.924Z,17.15
2022-11-28T10:45:18.309Z,19.58
2022-11-28T10:47:57.176Z,16.38
2022-11-28T10:50:54.325Z,17.77
2022-11-28T10:53:27.375Z,18.48
2022-11-28T10:56:06.145Z,15.35
2022-11-28T10:58:43.356Z,18.02
2022-11-28T11:01:11.112Z,18.63
2022-11-28T11:03:40.247Z,16.45
2022-11-28T11:06:08.013Z,16.13
2022-11-28T11:08:40.085Z,18.10
2022-11-28T11:11:28.268Z,18.30
2022-11-28T11:14:11.078Z,19.17
2022-11-28T11:16:57.054Z,16.80
2022-11-28T11:19:36.215Z,17.30
2022-11-28T11:22:19.293Z,19.08
2022-11-28T11:25:15.633Z,20.40
2022-11-28T11:27:58.257Z,17.67
2022-11-28T11:30:27.120Z,17.80
2022-11-28T11:32:56.983Z,16.85
2022-11-28T11:35:45.328Z,13.93
2022-11-28T11:38:37.955Z,14.88
2022-11-28T11:41:27.198Z,18.17
2022-11-28T11:43:54.425Z,14.90
2022-11-28T11:46:21.767Z,16.58
2022-11-28T11:48:52.935Z,14.07
2022-11-28T11:51:27.408Z,13.88
2022-11-28T11:54:06.838Z,15.48
2022-11-28T11:56:38.797Z,16.05
2022-11-28T11:59:32.180Z,16.48
2022-11-28T12:02:28.359Z,20.08
2022-11-28T12:05:10.142Z,19.30
2022-11-28T12:07:40.076Z,17.33
2022-11-28T12:10:13.032Z,17.95
2022-11-28T12:12:42.178Z,21.58
2022-11-28T12:15:58.746Z,15.70
2022-11-28T12:18:40.480Z,15.07
2022-11-28T12:21:14.608Z,17.45
2022-11-28T12:26:47.691Z,16.30
2022-11-28T12:29:17.936Z,16.38
2022-11-28T12:31:54.474Z,15.45
2022-11-28T12:34:40.271Z,16.42
2022-11-28T12:37:18.414Z,19.70
2022-11-28T12:40:09.103Z,20.65
2022-11-28T12:43:13.514Z,17.25
2022-11-28T12:45:47.222Z,17.38
2022-11-28T12:48:37.467Z,20.88
2022-11-28T12:51:37.941Z,23.67
2022-11-28T12:54:29.350Z,17.27
2022-11-28T12:57:17.063Z,25.00
2022-11-28T13:00:09.685Z,16.33
2022-11-28T13:03:10.254Z,19.25
2022-11-28T13:06:12.868Z,21.10
2022-11-28T13:08:49.282Z,16.75
2022-11-28T13:11:35.648Z,18.52
2022-11-28T13:14:21.350Z,17.00
2022-11-28T13:16:51.212Z,16.80
2022-11-28T13:19:41.987Z,21.00
2022-11-28T13:22:20.691Z,16.40
2022-11-28T13:25:03.451Z,20.08
2022-11-28T13:27:54.704Z,18.40
2022-11-28T13:30:31.457Z,20.30
2022-11-28T13:33:22.977Z,17.13
2022-11-28T13:35:50.428Z,21.65
2022-11-28T13:39:11.176Z,19.85
2022-11-28T13:44:49.592Z,21.83
2022-11-28T13:47:23.796Z,19.80
2022-11-28T13:49:51.491Z,19.23
2022-11-28T13:52:18.619Z,19.08
2022-11-28T13:54:53.187Z,17.92
2022-11-28T13:57:30.520Z,18.55
2022-11-28T14:00:12.541Z,20.73
2022-11-28T14:02:39.923Z,16.92
2022-11-28T14:05:34.142Z,21.48
2022-11-28T14:08:02.518Z,17.95
2022-11-28T14:10:58.367Z,21.08
2022-11-28T14:13:48.045Z,20.65
2022-11-28T14:16:33.949Z,18.17
2022-11-28T14:19:23.018Z,22.85
2022-11-28T14:22:20.347Z,21.70
2022-11-28T14:24:53.437Z,18.90
2022-11-28T14:27:30.764Z,24.20
2022-11-28T14:29:59.659Z,20.55
2022-11-28T14:32:34.891Z,17.77
2022-11-28T14:35:02.900Z,23.05
2022-11-28T14:37:36.258Z,21.30
2022-11-28T14:40:04.714Z,16.60
2022-11-28T14:45:43.899Z,23.88
2022-11-28T14:48:29.254Z,25.15
2022-11-28T14:51:01.679Z,19.98
2022-11-28T14:53:42.561Z,23.42
2022-11-28T14:56:11.796Z,23.23
2022-11-28T14:58:39.795Z,28.73
2022-11-28T15:01:14.429Z,28.42
2022-11-28T15:04:21.328Z,23.88
2022-11-28T15:06:50.856Z,23.63
2022-11-28T15:09:43.062Z,25.92
2022-11-28T15:12:20.073Z,26.05
2022-11-28T15:14:53.022Z,24.92
2022-11-28T15:17:25.347Z,17.15
2022-11-28T15:19:53.518Z,21.45
2022-11-28T15:22:43.896Z,25.60
2022-11-28T15:25:35.813Z,23.70
2022-11-28T15:28:17.036Z,19.10
2022-11-28T15:30:50.340Z,24.13
2022-11-28T15:33:18.252Z,21.05
2022-11-28T15:36:01.764Z,23.40
2022-11-28T15:38:31.372Z,21.47
2022-11-28T15:41:00.371Z,22.98
2022-11-28T15:43:28.149Z,30.85
2022-11-28T15:45:59.076Z,28.08
2022-11-28T15:48:29.932Z,23.75
2022-11-28T15:50:59.042Z,26.55
2022-11-28T15:53:27.459Z,25.38
2022-11-28T15:56:13.946Z,21.60
2022-11-28T15:58:43.501Z,22.67
2022-11-28T16:01:10.691Z,23.38
2022-11-28T16:03:49.060Z,20.65
2022-11-28T16:06:18.929Z,19.77
2022-11-28T16:08:58.029Z,20.38
2022-11-28T16:11:27.628Z,16.45
2022-11-28T16:13:57.712Z,20.65
2022-11-28T16:16:35.676Z,22.58
2022-11-28T16:19:06.226Z,18.20
2022-11-28T16:22:04.799Z,21.90
2022-11-28T16:24:44.515Z,20.13
2022-11-28T16:27:45.863Z,21.65
2022-11-28T16:30:41.733Z,22.20
2022-11-28T16:33:39.358Z,19.58
2022-11-28T16:36:36.413Z,18.10
2022-11-28T16:39:13.345Z,19.50
2022-11-28T16:42:08.689Z,20.02
2022-11-28T16:44:37.642Z,20.80
2022-11-28T16:47:06.115Z,20.13
2022-11-28T16:49:44.887Z,20.50
2022-11-28T16:52:24.492Z,18.52
2022-11-28T16:54:58.783Z,20.15
2022-11-28T16:57:45.646Z,20.50
2022-11-28T17:00:13.684Z,19.85
2022-11-28T17:02:40.995Z,23.10
2022-11-28T17:05:09.931Z,21.98
2022-11-28T17:07:39.180Z,17.25
2022-11-28T17:10:07.161Z,22.23
2022-11-28T17:12:37.395Z,21.00
2022-11-28T17:15:06.624Z,18.65
2022-11-28T17:17:35.635Z,23.73
2022-11-28T17:20:03.802Z,21.60
2022-11-28T17:22:51.292Z,18.10
2022-11-28T17:25:20.818Z,19.75
2022-11-28T17:27:48.615Z,19.45
2022-11-28T17:30:18.961Z,19.55
2022-11-28T17:32:52.130Z,19.88
2022-11-28T17:35:23.980Z,22.63
2022-11-28T17:37:51.388Z,22.13
2022-11-28T17:40:33.864Z,22.48
2022-11-28T17:43:01.880Z,24.60
2022-11-28T17:45:31.449Z,22.55
2022-11-28T17:47:58.622Z,20.15
2022-11-28T17:50:25.887Z,20.85
2022-11-28T17:52:53.073Z,26.30
2022-11-28T17:55:20.876Z,22.23
2022-11-28T17:57:48.114Z,23.33
2022-11-28T18:00:16.979Z,19.63
2022-11-28T18:02:44.123Z,19.23
2022-11-28T18:05:11.520Z,19.23
2022-11-28T18:07:38.689Z,21.55
2022-11-28T18:10:06.677Z,18.92
2022-11-28T18:12:33.941Z,17.08
2022-11-28T18:15:01.714Z,22.55
2022-11-28T18:17:29.033Z,19.85
2022-11-28T18:19:57.893Z,20.80
2022-11-28T18:22:25.389Z,20.83
2022-11-28T18:24:52.600Z,21.00
2022-11-28T18:27:19.829Z,19.05
2022-11-28T18:29:47.071Z,20.83
2022-11-28T18:32:14.323Z,21.63
2022-11-28T18:34:41.539Z,18.13
2022-11-28T18:37:09.054Z,20.08
2022-11-28T18:39:36.368Z,18.52
2022-11-28T18:42:03.675Z,16.48
2022-11-28T18:44:31.055Z,18.13
2022-11-28T18:46:58.279Z,17.02
2022-11-28T18:49:26.245Z,18.48
2022-11-28T18:51:56.719Z,18.30
2022-11-28T18:54:25.999Z,21.30
2022-11-28T18:56:53.228Z,16.90
2022-11-28T18:59:20.555Z,16.15
2022-11-28T19:01:47.805Z,18.15
2022-11-28T19:04:15.816Z,17.75
2022-11-28T19:06:44.230Z,16.30
2022-11-28T19:09:16.052Z,21.42
2022-11-28T19:11:43.931Z,19.08
2022-11-28T19:14:16.931Z,21.45
2022-11-28T19:16:45.372Z,14.60
2022-11-28T19:19:12.647Z,21.00
2022-11-28T19:21:39.897Z,21.20
2022-11-28T19:24:11.883Z,18.77
2022-11-28T19:26:39.378Z,18.80
2022-11-28T19:29:07.436Z,16.88
2022-11-28T19:31:36.964Z,22.52
2022-11-28T19:34:06.933Z,18.08
2022-11-28T19:36:37.725Z,16.13
2022-11-28T19:39:05.779Z,19.08
2022-11-28T19:41:32.923Z,15.95
2022-11-28T19:44:00.504Z,17.33
2022-11-28T19:46:35.102Z,18.00
2022-11-28T19:49:03.787Z,17.33
2022-11-28T19:51:30.923Z,17.70
2022-11-28T19:54:03.263Z,17.58
2022-11-28T19:56:31.668Z,17.98
2022-11-28T19:58:59.369Z,16.55
2022-11-28T20:01:28.402Z,19.20
2022-11-28T20:03:55.929Z,18.83
2022-11-28T20:06:31.415Z,17.55
2022-11-28T20:09:03.278Z,19.83
2022-11-28T20:11:34.097Z,17.08
2022-11-28T20:14:11.735Z,17.23
2022-11-28T20:16:39.015Z,18.52
2022-11-28T20:19:06.854Z,17.10
2022-11-28T20:21:34.794Z,15.85
2022-11-28T20:24:05.358Z,20.05
2022-11-28T20:26:36.384Z,19.48
2022-11-28T20:29:03.583Z,17.77
2022-11-28T20:31:36.028Z,17.00
2022-11-28T20:34:03.767Z,21.42
2022-11-28T20:36:32.497Z,22.92
2022-11-28T20:39:00.093Z,20.15
2022-11-28T20:41:28.718Z,22.30
2022-11-28T20:43:56.691Z,24.95
2022-11-28T20:46:28.297Z,19.70
2022-11-28T20:48:58.237Z,25.02
2022-11-28T20:51:27.947Z,23.38
2022-11-28T20:53:57.013Z,17.00
2022-11-28T20:56:29.388Z,17.02
2022-11-28T20:58:59.148Z,16.85
2022-11-28T21:01:29.267Z,17.83
2022-11-28T21:03:57.465Z,19.02
2022-11-28T21:06:24.722Z,24.23
2022-11-28T21:08:52.246Z,20.98
2022-11-28T21:11:43.868Z,25.80
2022-11-28T21:14:09.106Z,19.98
2022-11-28T21:16:36.365Z,20.02
2022-11-28T21:19:09.063Z,15.93
2022-11-28T21:21:39.033Z,16.95
2022-11-28T21:24:09.825Z,21.35
2022-11-28T21:26:41.067Z,17.95
2022-11-28T21:29:12.359Z,21.15
2022-11-28T21:31:43.135Z,21.85
2022-11-28T21:34:16.850Z,16.17
2022-11-28T21:36:44.707Z,18.48
2022-11-28T21:39:18.901Z,21.65
2022-11-28T21:41:46.784Z,17.98
2022-11-28T21:44:14.092Z,15.57
2022-11-28T21:46:41.272Z,19.20
2022-11-28T21:49:08.501Z,16.75
2022-11-28T21:51:35.682Z,16.50
2022-11-28T21:54:03.049Z,17.77
2022-11-28T21:56:30.097Z,17.30
2022-11-28T21:58:57.234Z,15.88
2022-11-28T22:01:24.550Z,24.67
2022-11-28T22:03:52.817Z,19.33
2022-11-28T22:06:30.213Z,17.40
2022-11-28T22:08:57.418Z,16.85
2022-11-28T22:11:24.974Z,20.58
2022-11-28T22:13:53.098Z,20.83
2022-11-28T22:16:21.792Z,21.55
2022-11-28T22:18:50.451Z,20.70
2022-11-28T22:24:05.690Z,23.00
2022-11-28T22:26:33.224Z,19.05
2022-11-28T22:29:01.247Z,18.13
2022-11-28T22:31:28.598Z,22.88
2022-11-28T22:33:56.082Z,21.95
2022-11-28T22:36:23.980Z,19.55
2022-11-28T22:38:56.438Z,20.80
2022-11-28T22:41:28.846Z,23.17
2022-11-28T22:43:59.739Z,21.08
2022-11-28T22:46:27.609Z,21.55
2022-11-28T22:48:54.861Z,19.83
2022-11-28T22:51:24.872Z,20.77
2022-11-28T22:53:56.198Z,23.58
2022-11-28T22:56:23.816Z,22.95
2022-11-28T22:58:51.683Z,20.30
2022-11-28T23:01:25.057Z,20.02
2022-11-28T23:03:53.618Z,18.83
2022-11-28T23:06:24.320Z,21.83
2022-11-28T23:08:52.173Z,20.50
2022-11-28T23:11:25.166Z,21.63
2022-11-28T23:13:52.808Z,19.75
2022-11-28T23:16:29.030Z,21.60
2022-11-28T23:18:58.245Z,23.52
2022-11-28T23:21:26.840Z,21.65
2022-11-28T23:23:54.355Z,22.83
2022-11-28T23:26:24.740Z,22.30
2022-11-28T23:28:52.420Z,22.60
2022-11-28T23:31:25.519Z,24.98
2022-11-28T23:33:53.092Z,22.67
2022-11-28T23:36:29.372Z,26.45
2022-11-28T23:38:59.188Z,22.05
2022-11-28T23:41:27.681Z,21.35
2022-11-28T23:43:55.305Z,20.58
2022-11-28T23:46:23.584Z,23.55
2022-11-28T23:48:51.385Z,23.92
2022-11-28T23:51:21.675Z,24.63
2022-11-28T23:53:50.266Z,20.42
2022-11-28T23:56:29.276Z,21.42
2022-11-28T23:58:57.664Z,27.50
